Map

Track Data

SID SEASON NUMBER BASIN SUBBASIN NAME ISO_TIME NATURE LAT LON WMO_WIND WMO_PRES WMO_AGENCY TRACK_TYPE DIST2LAND LANDFALL IFLAG USA_AGENCY USA_ATCF_ID USA_LAT USA_LON USA_RECORD USA_STATUS USA_WIND USA_PRES USA_SSHS USA_R34_NE USA_R34_SE USA_R34_SW USA_R34_NW USA_R50_NE USA_R50_SE USA_R50_SW USA_R50_NW USA_R64_NE USA_R64_SE USA_R64_SW USA_R64_NW USA_POCI USA_ROCI USA_RMW USA_EYE TOKYO_LAT TOKYO_LON TOKYO_GRADE TOKYO_WIND TOKYO_PRES TOKYO_R50_DIR TOKYO_R50_LONG TOKYO_R50_SHORT TOKYO_R30_DIR TOKYO_R30_LONG TOKYO_R30_SHORT TOKYO_LAND CMA_LAT CMA_LON CMA_CAT CMA_WIND CMA_PRES HKO_LAT HKO_LON HKO_CAT HKO_WIND HKO_PRES NEWDELHI_LAT NEWDELHI_LON NEWDELHI_GRADE NEWDELHI_WIND NEWDELHI_PRES NEWDELHI_CI NEWDELHI_DP NEWDELHI_POCI REUNION_LAT REUNION_LON REUNION_TYPE REUNION_WIND REUNION_PRES REUNION_TNUM REUNION_CI REUNION_RMW REUNION_R34_NE REUNION_R34_SE REUNION_R34_SW REUNION_R34_NW REUNION_R50_NE REUNION_R50_SE REUNION_R50_SW REUNION_R50_NW REUNION_R64_NE REUNION_R64_SE REUNION_R64_SW REUNION_R64_NW BOM_LAT BOM_LON BOM_TYPE BOM_WIND BOM_PRES BOM_TNUM BOM_CI BOM_RMW BOM_R34_NE BOM_R34_SE BOM_R34_SW BOM_R34_NW BOM_R50_NE BOM_R50_SE BOM_R50_SW BOM_R50_NW BOM_R64_NE BOM_R64_SE BOM_R64_SW BOM_R64_NW BOM_ROCI BOM_POCI BOM_EYE BOM_POS_METHOD BOM_PRES_METHOD NADI_LAT NADI_LON NADI_CAT NADI_WIND NADI_PRES WELLINGTON_LAT WELLINGTON_LON WELLINGTON_WIND WELLINGTON_PRES DS824_LAT DS824_LON DS824_STAGE DS824_WIND DS824_PRES TD9636_LAT TD9636_LON TD9636_STAGE TD9636_WIND TD9636_PRES TD9635_LAT TD9635_LON TD9635_WIND TD9635_PRES TD9635_ROCI NEUMANN_LAT NEUMANN_LON NEUMANN_CLASS NEUMANN_WIND NEUMANN_PRES MLC_LAT MLC_LON MLC_CLASS MLC_WIND MLC_PRES USA_GUST BOM_GUST BOM_GUST_PER REUNION_GUST REUNION_GUST_PER USA_SEAHGT USA_SEARAD_NE USA_SEARAD_SE USA_SEARAD_SW USA_SEARAD_NW STORM_SPEED STORM_DIR
1996339S03094 1997 118 SI WA ELVINA 1996-12-03 12:00:00 TS -3.00000 94.0000 main 550 550 O___________O_ jtwc_sh SH091997 -3.00000 94.0000 15 -1 -3.00000 94.0000 TC 15 9 177
1996339S03094 1997 118 SI WA ELVINA 1996-12-03 15:00:00 TS -3.46750 94.0225 main 572 572 P___________P_ SH091997 -3.46750 94.0225 15 -1 -3.46750 94.0225 TC 15 9 0
1996339S03094 1997 118 SI WA ELVINA 1996-12-03 18:00:00 TS -3.90000 94.0000 main 594 594 O___________O_ jtwc_sh SH091997 -3.90000 94.0000 15 -1 -3.90000 94.0000 TC 15 8 188
1996339S03094 1997 118 SI WA ELVINA 1996-12-03 21:00:00 TS -4.27250 93.9075 main 627 627 P___________P_ SH091997 -4.27250 93.9075 15 -1 -4.27250 93.9075 TC 15 7 196
1996339S03094 1997 118 SI WA ELVINA 1996-12-04 00:00:00 TS -4.60000 93.8000 main 653 653 O___________O_ jtwc_sh SH091997 -4.60000 93.8000 15 -1 -4.60000 93.8000 TC 15 7 195
1996339S03094 1997 118 SI WA ELVINA 1996-12-04 03:00:00 TS -4.90750 93.7350 main 680 680 P___________P_ SH091997 -4.90750 93.7350 15 -1 -4.90750 93.7350 TC 15 6 189
1996339S03094 1997 118 SI WA ELVINA 1996-12-04 06:00:00 TS -5.20000 93.7000 main 698 698 O___________O_ jtwc_sh SH091997 -5.20000 93.7000 15 -1 -5.20000 93.7000 TC 15 6 185
1996339S03094 1997 118 SI WA ELVINA 1996-12-04 09:00:00 TS -5.50750 93.6775 main 717 717 P___________P_ SH091997 -5.50750 93.6775 15 -1 -5.50750 93.6775 TC 15 6 179
1996339S03094 1997 118 SI WA ELVINA 1996-12-04 12:00:00 TS -5.80000 93.7000 main 737 737 O___________O_ jtwc_sh SH091997 -5.80000 93.7000 15 -1 -5.80000 93.7000 TC 15 6 170
1996339S03094 1997 118 SI WA ELVINA 1996-12-04 15:00:00 TS -6.05750 93.7775 main 750 749 P___________P_ SH091997 -6.05750 93.7775 15 -1 -6.05750 93.7775 TC 15 5 158
1996339S03094 1997 118 SI WA ELVINA 1996-12-04 18:00:00 TS -6.30000 93.9000 main 757 757 O___________O_ jtwc_sh SH091997 -6.30000 93.9000 15 -1 -6.30000 93.9000 TC 15 6 152
1996339S03094 1997 118 SI WA ELVINA 1996-12-04 21:00:00 TS -6.55000 94.0425 main 764 765 P___________P_ SH091997 -6.55000 94.0425 15 -1 -6.55000 94.0425 TC 15 6 149
1996339S03094 1997 118 SI WA ELVINA 1996-12-05 00:00:00 TS -6.80000 94.2000 main 773 773 O___________O_ jtwc_sh SH091997 -6.80000 94.2000 15 -1 -6.80000 94.2000 TC 15 6 149
1996339S03094 1997 118 SI WA ELVINA 1996-12-05 03:00:00 TS -7.04999 94.3425 main 783 783 P___________P_ SH091997 -7.04999 94.3425 15 -1 -7.04999 94.3425 TC 15 6 149
1996339S03094 1997 118 SI WA ELVINA 1996-12-05 06:00:00 TS -7.30000 94.5000 main 794 794 O___________O_ jtwc_sh SH091997 -7.30000 94.5000 15 -1 -7.30000 94.5000 TC 15 6 144
1996339S03094 1997 118 SI WA ELVINA 1996-12-05 09:00:00 TS -7.55002 94.7150 main 808 802 P___________P_ SH091997 -7.55002 94.7150 15 -1 -7.55002 94.7150 TC 15 6 142
1996339S03094 1997 118 SI WA ELVINA 1996-12-05 12:00:00 TS -7.80000 94.9000 main 814 814 O___________O_ jtwc_sh SH091997 -7.80000 94.9000 15 -1 -7.80000 94.9000 TC 15 6 150
1996339S03094 1997 118 SI WA ELVINA 1996-12-05 15:00:00 TS -8.04998 95.0025 main 827 827 P___________P_ SH091997 -8.04998 95.0025 15 -1 -8.04998 95.0025 TC 15 5 169
1996339S03094 1997 118 SI WA ELVINA 1996-12-05 18:00:00 TS -8.30000 95.0000 main 856 856 O___________O_ jtwc_sh SH091997 -8.30000 95.0000 15 -1 -8.30000 95.0000 TC 15 5 192
1996339S03094 1997 118 SI WA ELVINA 1996-12-05 21:00:00 TS -8.56500 94.8876 main 891 891 P___________P_ SH091997 -8.56500 94.8876 15 -1 -8.56500 94.8876 TC 15 6 211
1996339S03094 1997 118 SI WA ELVINA 1996-12-06 00:00:00 TS -8.80000 94.7000 main 921 921 O___________O_ jtwc_sh SH091997 -8.80000 94.7000 15 -1 -8.80000 94.7000 TC 15 5 223
1996339S03094 1997 118 SI WA ELVINA 1996-12-06 03:00:00 TS -8.96499 94.5150 main 952 952 P___________P_ SH091997 -8.96499 94.5150 15 -1 -8.96499 94.5150 TC 15 5 233
1996339S03094 1997 118 SI WA ELVINA 1996-12-06 06:00:00 TS -9.10000 94.3000 main 973 973 O___________O_ jtwc_sh SH091997 -9.10000 94.3000 15 -1 -9.10000 94.3000 TC 15 5 237
1996339S03094 1997 118 SI WA ELVINA 1996-12-06 09:00:00 TS -9.25748 94.0650 main 1003 1003 P___________P_ SH091997 -9.25748 94.0650 15 -1 -9.25748 94.0650 TC 15 6 239
1996339S03094 1997 118 SI WA ELVINA 1996-12-06 12:00:00 TS -9.40000 93.8000 main 1031 1031 O___________O_ jtwc_sh SH091997 -9.40000 93.8000 15 -1 -9.40000 93.8000 TC 15 6 245
1996339S03094 1997 118 SI WA ELVINA 1996-12-06 15:00:00 TS -9.51499 93.5075 main 1058 1058 P___________P_ SH091997 -9.51499 93.5075 15 -1 -9.51499 93.5075 TC 15 6 251
1996339S03094 1997 118 SI WA ELVINA 1996-12-06 18:00:00 TS -9.60000 93.2000 main 1086 1086 O___________O_ jtwc_sh SH091997 -9.60000 93.2000 15 -1 -9.60000 93.2000 TC 15 6 257
1996339S03094 1997 118 SI WA ELVINA 1996-12-06 21:00:00 TS -9.64995 92.9074 main 1106 1106 P___________P_ SH091997 -9.64995 92.9074 15 -1 -9.64995 92.9074 TC 15 6 260
1996339S03094 1997 118 SI WA ELVINA 1996-12-07 00:00:00 TS -9.70000 92.6000 main 1135 1135 O___________O_ jtwc_sh SH091997 -9.70000 92.6000 15 -1 -9.70000 92.6000 TC 15 7 257
1996339S03094 1997 118 SI WA ELVINA 1996-12-07 03:00:00 TS -9.80005 92.2351 main 1171 1171 P___________P_ SH091997 -9.80005 92.2351 15 -1 -9.80005 92.2351 TC 15 7 254
1996339S03094 1997 118 SI WA ELVINA 1996-12-07 06:00:00 TS -9.90000 91.9000 main 1201 1201 O___________O_ jtwc_sh SH091997 -9.90000 91.9000 15 -1 -9.90000 91.9000 TC 15 6 254
1996339S03094 1997 118 SI WA ELVINA 1996-12-07 09:00:00 TS -9.95745 91.6700 main 1224 1224 P___________P_ SH091997 -9.95745 91.6700 15 -1 -9.95745 91.6700 TC 15 4 256
1996339S03094 1997 118 SI WA ELVINA 1996-12-07 12:00:00 TS -10.0000 91.5000 main 1238 1238 O___________O_ jtwc_sh SH091997 -10.0000 91.5000 15 -1 -10.0000 91.5000 TC 15 3 256
1996339S03094 1997 118 SI WA ELVINA 1996-12-07 15:00:00 TS -10.0350 91.3425 main 1253 1253 P___________P_ SH091997 -10.0350 91.3425 17 -1 -10.0350 91.3425 TC 17 3 251
1996339S03094 1997 118 SI WA ELVINA 1996-12-07 18:00:00 TS -10.1000 91.2000 main 1269 1269 O___________O_ jtwc_sh SH091997 -10.1000 91.2000 20 -1 -10.1000 91.2000 TC 20 4 237
1996339S03094 1997 118 SI WA ELVINA 1996-12-07 21:00:00 TS -10.2275 91.0425 main 1292 1292 P___________P_ SH091997 -10.2275 91.0425 20 -1 -10.2275 91.0425 TC 20 4 224
1996339S03094 1997 118 SI WA ELVINA 1996-12-08 00:00:00 TS -10.4000 90.9000 main 1316 1316 O___________O_ jtwc_sh SH091997 -10.4000 90.9000 20 -1 -10.4000 90.9000 TC 20 4 215
1996339S03094 1997 118 SI WA ELVINA 1996-12-08 03:00:00 TS -10.5850 90.7925 main 1340 1340 P___________P_ SH091997 -10.5850 90.7925 22 -1 -10.5850 90.7925 TC 22 4 206
1996339S03094 1997 118 SI WA ELVINA 1996-12-08 06:00:00 TS -10.8000 90.7000 main 1364 1364 O___________O_ jtwc_sh SH091997 -10.8000 90.7000 25 -1 -10.8000 90.7000 TC 25 5 202
1996339S03094 1997 118 SI WA ELVINA 1996-12-08 09:00:00 TS -11.0350 90.6075 main 1388 1388 P___________P_ SH091997 -11.0350 90.6075 25 -1 -11.0350 90.6075 TC 25 5 0
1996339S03094 1997 118 SI WA ELVINA 1996-12-08 12:00:00 TS -11.3444 90.6778 main 1406 1406 O____O______O_ jtwc_sh SH091997 -11.3000 90.5000 25 -1 -11.7000 92.1000 2 25 1000 2.00000 2.00000 -11.3000 90.5000 TC 25 6 178
1996339S03094 1997 118 SI WA ELVINA 1996-12-08 15:00:00 TS -11.6475 90.6355 main 1438 1438 P____P______P_ SH091997 -11.5999 90.3874 25 -1 -11.8376 91.6275 2 25 1000 -11.5999 90.3874 TC 25 6 201
1996339S03094 1997 118 SI WA ELVINA 1996-12-08 18:00:00 TS -11.9273 90.4455 main 1478 1478 O____O______O_ jtwc_sh SH091997 -11.9000 90.2000 25 -1 -12.0000 91.1000 2 25 1000 1.50000 2.00000 -11.9000 90.2000 TC 25 8 224
1996339S03094 1997 118 SI WA ELVINA 1996-12-08 21:00:00 TS -12.1866 90.1000 main 1525 1525 P____P______P_ SH091997 -12.1799 89.9100 25 -1 -12.1999 90.4800 2 25 1000 -12.1799 89.9100 TC 25 10 240
1996339S03094 1997 118 SI MM ELVINA 1996-12-09 00:00:00 TS -12.4000 89.6000 25 1000 reunion main 1577 1577 O____O______O_ jtwc_sh SH091997 -12.4000 89.5000 25 -1 -12.4000 89.8000 2 25 1000 2.00000 2.00000 -12.4000 89.5000 TC 25 11 251
1996339S03094 1997 118 SI MM ELVINA 1996-12-09 03:00:00 TS -12.5467 89.0200 main 1629 1629 P____P______P_ SH091997 -12.5375 88.9800 27 -1 -12.5649 89.1000 2 25 1000 -12.5375 88.9800 TC 27 12 259
1996339S03094 1997 118 SI MM ELVINA 1996-12-09 06:00:00 TS -12.6333 88.4000 25 1000 reunion main 1682 1682 O____O______O_ jtwc_sh SH091997 -12.6000 88.4000 30 -1 -12.7000 88.4000 2 25 1000 2.00000 2.00000 -12.6000 88.4000 TC 30 12 263
1996339S03094 1997 118 SI MM ELVINA 1996-12-09 09:00:00 TS -12.6839 87.8241 main 1736 1736 P____P______P_ SH091997 -12.6223 87.8575 30 -1 -12.8072 87.7574 2 27 998 -12.6223 87.8575 TC 30 11 267
1996339S03094 1997 118 SI MM ELVINA 1996-12-09 12:00:00 TS -12.7000 87.2333 30 997 reunion main 1783 1783 O____O______O_ jtwc_sh SH091997 -12.6000 87.3000 30 -1 -12.9000 87.1000 2 30 997 2.50000 2.50000 -12.6000 87.3000 TC 30 12 269
1996339S03094 1997 118 SI MM ELVINA 1996-12-09 15:00:00 TS -12.6950 86.5832 main 1832 1832 P____P______P_ SH091997 -12.5425 86.6999 32 -1 -13.0000 86.3500 2 30 996 -12.5425 86.6999 TC 32 13 270
1996339S03094 1997 118 SI MM ELVINA 1996-12-09 18:00:00 TS -12.7000 85.9333 30 995 reunion main 1890 1890 O____O______O_ jtwc_sh SH091997 -12.5000 86.1000 35 0 -13.1000 85.6000 2 30 995 2.50000 2.50000 -12.5000 86.1000 TC 35 12 267
1996339S03094 1997 118 SI MM ELVINA 1996-12-09 21:00:00 TS -12.7540 85.3325 main 1947 1947 P____P______P_ SH091997 -12.5273 85.5425 35 0 -13.2074 84.9125 2 32 993 -12.5273 85.5425 TC 35 11 263
1996339S03094 1997 118 SI MM ELVINA 1996-12-10 00:00:00 TS -12.8333 84.7667 35 992 reunion main 1990 1990 O____O______O_ jtwc_sh SH091997 -12.6000 85.0000 35 0 -13.3000 84.3000 3 35 992 3.00000 3.00000 -12.6000 85.0000 TC 35 11 261
1996339S03094 1997 118 SI MM ELVINA 1996-12-10 03:00:00 TS -12.9191 84.2159 main 2049 2049 P____P______P_ SH091997 -12.6924 84.4425 35 0 -13.3723 83.7625 3 35 991 -12.6924 84.4425 TC 35 11 261
1996339S03094 1997 118 SI MM ELVINA 1996-12-10 06:00:00 TS -13.0000 83.7000 35 990 reunion main 2099 2099 O____O______O_ jtwc_sh SH091997 -12.8000 83.9000 35 0 -13.4000 83.3000 3 35 990 3.00000 3.00000 -12.8000 83.9000 TC 35 10 262
1996339S03094 1997 118 SI MM ELVINA 1996-12-10 09:00:00 TS -13.0574 83.2158 main 2148 2142 P____P______P_ SH091997 -12.9074 83.3850 35 0 -13.3574 82.8774 3 37 989 -12.9074 83.3850 TC 35 9 264
1996339S03094 1997 118 SI MM ELVINA 1996-12-10 12:00:00 TS -13.1000 82.7667 40 988 reunion main 2142 2138 O____O______O_ jtwc_sh SH091997 -13.0000 82.9000 35 0 -13.3000 82.5000 3 40 988 3.00000 3.00000 -13.0000 82.9000 TC 35 9 264
1996339S03094 1997 118 SI MM ELVINA 1996-12-10 15:00:00 TS -13.1432 82.3400 main 2137 2137 P____P______P_ SH091997 -13.0649 82.4425 37 0 -13.2999 82.1351 3 42 986 -13.0649 82.4425 TC 37 8 265
1996339S03094 1997 118 SI MM ELVINA 1996-12-10 18:00:00 TS -13.1667 81.9333 45 985 reunion main 2144 2142 O____O______O_ jtwc_sh SH091997 -13.1000 82.0000 40 0 -13.3000 81.8000 3 45 985 3.50000 3.50000 -13.1000 82.0000 TC 40 8 269
1996339S03094 1997 118 SI MM ELVINA 1996-12-10 21:00:00 TS -13.1574 81.5458 main 2142 2129 P____P______P_ SH091997 -13.1074 81.5500 42 0 -13.2572 81.5375 3 45 985 -13.1074 81.5500 TC 42 8 272
1996339S03094 1997 118 SI MM ELVINA 1996-12-11 00:00:00 TS -13.1333 81.1333 45 985 reunion main 2129 2128 O____O______O_ jtwc_sh SH091997 -13.1000 81.1000 45 0 -13.2000 81.2000 3 45 985 3.50000 3.50000 -13.1000 81.1000 TC 45 9 273
1996339S03094 1997 118 SI MM ELVINA 1996-12-11 03:00:00 TS -13.1192 80.6483 main 2128 2128 P____P______P_ SH091997 -13.0999 80.6500 47 0 -13.1576 80.6450 3 45 985 -13.0999 80.6500 TC 47 10 272
1996339S03094 1997 118 SI MM ELVINA 1996-12-11 06:00:00 TS -13.1000 80.1333 45 985 reunion main 2129 2129 O____O______O_ jtwc_sh SH091997 -13.1000 80.2000 50 0 -13.1000 80.0000 3 45 985 3.50000 3.50000 -13.1000 80.2000 TC 50 10 273
1996339S03094 1997 118 SI MM ELVINA 1996-12-11 09:00:00 TS -13.0667 79.6108 main 2131 2121 P____P______P_ SH091997 -13.1000 79.7350 52 0 -13.0001 79.3624 3 45 985 -13.1000 79.7350 TC 52 10 274
1996339S03094 1997 118 SI MM ELVINA 1996-12-11 12:00:00 TS -13.0333 79.1333 45 985 reunion main 2124 2124 O____O______O_ jtwc_sh SH091997 -13.1000 79.3000 55 0 -12.9000 78.8000 3 45 985 3.50000 3.50000 -13.1000 79.3000 TC 55 9 274
1996339S03094 1997 118 SI MM ELVINA 1996-12-11 15:00:00 TS -13.0116 78.7334 main 2127 2127 P____P______P_ SH091997 -13.1000 78.9125 55 0 -12.8349 78.3751 3 45 985 -13.1000 78.9125 TC 55 7 273
1996339S03094 1997 118 SI MM ELVINA 1996-12-11 18:00:00 TS -13.0000 78.4333 45 985 reunion main 2131 2131 O____O______O_ jtwc_sh SH091997 -13.1000 78.6000 55 0 -12.8000 78.1000 3 45 985 3.50000 3.50000 -13.1000 78.6000 TC 55 5 273
1996339S03094 1997 118 SI MM ELVINA 1996-12-11 21:00:00 TS -12.9899 78.2317 main 2134 2134 P____P______P_ SH091997 -13.0924 78.3700 55 0 -12.7849 77.9550 3 45 985 -13.0924 78.3700 TC 55 3 270
1996339S03094 1997 118 SI MM ELVINA 1996-12-12 00:00:00 TS -13.0000 78.1000 45 985 reunion main 2135 2135 O____O______O_ jtwc_sh SH091997 -13.1000 78.2000 55 0 -12.8000 77.9000 3 45 985 3.00000 3.50000 -13.1000 78.2000 TC 55 3 259
1996339S03094 1997 118 SI MM ELVINA 1996-12-12 03:00:00 TS -13.0400 77.9708 main 2136 2136 P____P______P_ SH091997 -13.1425 78.0350 55 0 -12.8350 77.8425 3 45 985 -13.1425 78.0350 TC 55 2 246
1996339S03094 1997 118 SI MM ELVINA 1996-12-12 06:00:00 TS -13.1000 77.8667 45 985 reunion main 2149 2149 O____O______O_ jtwc_sh SH091997 -13.2000 77.9000 55 0 -12.9000 77.8000 3 45 985 3.00000 3.50000 -13.2000 77.9000 TC 55 2 238
1996339S03094 1997 118 SI MM ELVINA 1996-12-12 09:00:00 TS -13.1617 77.7708 main 2162 2162 P____P______P_ SH091997 -13.2425 77.7850 55 0 -13.0000 77.7425 3 42 986 -13.2425 77.7850 TC 55 2 230
1996339S03094 1997 118 SI MM ELVINA 1996-12-12 12:00:00 TS -13.2333 77.7000 40 988 reunion main 2163 2163 O____O______O_ jtwc_sh SH091997 -13.3000 77.7000 55 0 -13.1000 77.7000 3 40 988 2.50000 3.00000 -13.3000 77.7000 TC 55 2 213
1996339S03094 1997 118 SI MM ELVINA 1996-12-12 15:00:00 TS -13.3142 77.6717 main 2174 2174 P____P______P_ SH091997 -13.3925 77.6500 55 0 -13.1575 77.7150 3 37 990 -13.3925 77.6500 TC 55 2 203
1996339S03094 1997 118 SI MM ELVINA 1996-12-12 18:00:00 TS -13.4000 77.6333 35 992 reunion main 2187 2187 O____O______O_ jtwc_sh SH091997 -13.5000 77.6000 55 0 -13.2000 77.7000 3 35 992 2.00000 3.00000 -13.5000 77.6000 TC 55 2 218
1996339S03094 1997 118 SI MM ELVINA 1996-12-12 21:00:00 TS -13.4858 77.5392 main 2200 2200 P____P______P_ SH091997 -13.6000 77.5150 52 0 -13.2575 77.5875 3 32 993 -13.6000 77.5150 TC 52 3 234
1996339S03094 1997 118 SI MM ELVINA 1996-12-13 00:00:00 TS -13.5667 77.4000 30 995 reunion main 2213 2193 O____O______O_ jtwc_sh SH091997 -13.7000 77.4000 50 0 -13.3000 77.4000 2 30 995 2.00000 2.50000 -13.7000 77.4000 TC 50 3 244
1996339S03094 1997 118 SI MM ELVINA 1996-12-13 03:00:00 TS -13.6308 77.2266 main 2193 2169 P____P______P_ SH091997 -13.8075 77.2575 47 0 -13.2775 77.1649 2 27 997 -13.8075 77.2575 TC 47 4 249
1996339S03094 1997 118 SI MM ELVINA 1996-12-13 06:00:00 TS -13.7000 77.0333 25 1000 reunion main 2169 2155 O____O______O_ jtwc_sh SH091997 -13.9000 77.1000 45 0 -13.3000 76.9000 2 25 1000 2.00000 2.00000 -13.9000 77.1000 TC 45 4 248
1996339S03094 1997 118 SI MM ELVINA 1996-12-13 09:00:00 TS -13.7825 76.8500 main 2145 2130 P____P______P_ SH091997 -13.9500 76.9575 42 0 -13.4475 76.6350 2 25 1000 -13.9500 76.9575 TC 42 4 241
1996339S03094 1997 118 SI MM ELVINA 1996-12-13 12:00:00 TS -13.9000 76.6667 25 1000 reunion main 2130 2102 O____O______O_ jtwc_sh SH091997 -14.0000 76.8000 40 0 -13.7000 76.4000 2 25 1000 2.00000 2.00000 -14.0000 76.8000 TC 40 4 230
1996339S03094 1997 118 SI MM ELVINA 1996-12-13 15:00:00 TS -14.0633 76.4983 main 2102 2074 P____P______P_ SH091997 -14.0774 76.6299 40 0 -14.0350 76.2350 2 25 1000 -14.0774 76.6299 TC 40 5 224
1996339S03094 1997 118 SI MM ELVINA 1996-12-13 18:00:00 TS -14.2667 76.3000 25 1000 reunion main 2074 2035 O____O______O_ jtwc_sh SH091997 -14.2000 76.4000 40 0 -14.4000 76.1000 2 25 1000 2.00000 2.00000 -14.2000 76.4000 TC 40 6 228
1996339S03094 1997 118 SI MM ELVINA 1996-12-13 21:00:00 TS -14.4725 76.0291 main 2035 1997 P____P______P_ SH091997 -14.3551 76.0575 37 0 -14.7074 75.9724 2 25 1000 -14.3551 76.0575 TC 37 7 230
1996339S03094 1997 118 SI MM ELVINA 1996-12-14 00:00:00 TS -14.7333 75.7333 25 1000 reunion main 1997 1965 O____O______O_ jtwc_sh SH091997 -14.6000 75.7000 35 0 -15.0000 75.8000 2 25 1000 2.00000 2.00000 -14.6000 75.7000 TC 35 8 223
1996339S03094 1997 118 SI MM ELVINA 1996-12-14 03:00:00 TS -15.0700 75.4616 main 1962 1920 P____P______P_ SH091997 -14.9549 75.4275 35 0 -15.3000 75.5300 2 25 1000 -14.9549 75.4275 TC 35 9 215
1996339S03094 1997 118 SI MM ELVINA 1996-12-14 06:00:00 TS -15.4667 75.2000 25 1000 reunion main 1916 1882 O____O______O_ jtwc_sh SH091997 -15.4000 75.2000 35 0 -15.6000 75.2000 2 25 1000 2.00000 2.00000 -15.4000 75.2000 TC 35 10 211
1996339S03094 1997 118 SI MM ELVINA 1996-12-14 09:00:00 TS -15.8799 74.9573 main 1882 1838 P____P______P_ SH091997 -15.8849 75.0073 35 0 -15.8700 74.8573 2 25 1000 -15.8849 75.0073 TC 35 10 209
1996339S03094 1997 118 SI MM ELVINA 1996-12-14 12:00:00 TS -16.3333 74.7000 25 1000 reunion main 1838 1792 O____O______O_ jtwc_sh SH091997 -16.4000 74.8000 35 0 -16.2000 74.5000 2 25 1000 2.00000 2.00000 -16.4000 74.8000 TC 35 11 209
1996339S03094 1997 118 SI MM ELVINA 1996-12-14 15:00:00 TS -16.8308 74.4057 main 1792 1747 P____P______P_ SH091997 -16.9149 74.5374 35 0 -16.6625 74.1425 2 25 1000 -16.9149 74.5374 TC 35 12 211
1996339S03094 1997 118 SI MM ELVINA 1996-12-14 18:00:00 TS -17.3333 74.0667 25 1000 reunion main 1747 1693 O____O______O_ jtwc_sh SH091997 -17.4000 74.2000 35 0 -17.2000 73.8000 2 25 1000 2.00000 2.00000 -17.4000 74.2000 TC 35 12 214
1996339S03094 1997 118 SI MM ELVINA 1996-12-14 21:00:00 TS -17.8207 73.6941 main 1693 1643 P____P______P_ SH091997 -17.8375 73.7725 32 -1 -17.7871 73.5373 2 25 1000 -17.8375 73.7725 TC 32 12 220
1996339S03094 1997 118 SI MM ELVINA 1996-12-15 00:00:00 TS -18.2333 73.2667 25 1000 reunion main 1643 1585 O____O______O_ jtwc_sh SH091997 -18.2000 73.3000 30 -1 -18.3000 73.2000 2 25 1000 2.00000 2.00000 -18.2000 73.3000 TC 30 11 230
1996339S03094 1997 118 SI MM ELVINA 1996-12-15 03:00:00 TS -18.5383 72.7791 main 1585 1529 P____P______P_ SH091997 -18.4874 72.8498 30 -1 -18.6402 72.6377 2 25 1000 -18.4874 72.8498 TC 30 11 242
1996339S03094 1997 118 SI MM ELVINA 1996-12-15 06:00:00 TS -18.7333 72.2667 25 1000 reunion main 1529 1476 O____O______O_ jtwc_sh SH091997 -18.7000 72.4000 30 -1 -18.8000 72.0000 2 25 1000 2.00000 2.00000 -18.7000 72.4000 TC 30 10 252
1996339S03094 1997 118 SI MM ELVINA 1996-12-15 09:00:00 TS -18.8492 71.7481 main 1465 1422 P____P______P_ SH091997 -18.8725 71.9274 27 -1 -18.8026 71.3896 2 25 1000 -18.8725 71.9274 TC 27 9 260
1996339S03094 1997 118 SI MM ELVINA 1996-12-15 12:00:00 TS -18.9000 71.3000 25 1000 reunion main 1422 1391 O____O______O_ jtwc_sh SH091997 -19.0000 71.5000 25 -1 -18.7000 70.9000 2 25 1000 1.50000 2.00000 -19.0000 71.5000 TC 25 7 264
1996339S03094 1997 118 SI MM ELVINA 1996-12-15 15:00:00 TS -18.9307 70.9833 main 1391 1368 P____P______P_ SH091997 -19.1074 71.1624 25 -1 -18.5773 70.6250 2 25 1000 -19.1074 71.1624 TC 25 5 262
1996339S03094 1997 118 SI MM ELVINA 1996-12-15 18:00:00 TS -18.9667 70.7667 25 1000 reunion main 1368 1347 O____O______O_ jtwc_sh SH091997 -19.2000 70.9000 25 -1 -18.5000 70.5000 2 25 1000 1.50000 2.00000 -19.2000 70.9000 TC 25 4 254
1996339S03094 1997 118 SI MM ELVINA 1996-12-15 21:00:00 TS -19.0391 70.5917 main 1347 1334 P____P______P_ SH091997 -19.3074 70.6850 22 -1 -18.5025 70.4052 2 22 1001 -19.3074 70.6850 TC 22 4 229
1996339S03094 1997 118 SI MM ELVINA 1996-12-16 00:00:00 TS -19.2091 70.4727 20 1002 reunion main 1334 1310 O____O______O_ jtwc_sh SH091997 -19.4000 70.5000 20 -1 -18.7000 70.4000 6 20 1002 9.90000 1.50000 -19.4000 70.5000 TC 20 4 214
1996339S03094 1997 118 SI MM ELVINA 1996-12-16 03:00:00 TS -19.4000 70.3354 main 1310 1299 P____P______P_ SH091997 -19.4575 70.3000 20 -1 -19.1700 70.4772 6 20 1003 -19.4575 70.3000 TC 20 4 220
1996339S03094 1997 118 SI MM ELVINA 1996-12-16 06:00:00 TS -19.5429 70.1714 20 1004 reunion main 1299 1267 O____O______O_ jtwc_sh SH091997 -19.5000 70.1000 20 -1 -19.8000 70.6000 6 20 1004 9.90000 1.50000 -19.5000 70.1000 TC 20 4 250
1996339S03094 1997 118 SI MM ELVINA 1996-12-16 09:00:00 TS -19.5475 69.9000 main 1267 1245 P___________P_ SH091997 -19.5475 69.9000 17 -1 6 -19.5475 69.9000 TC 17 4 263
1996339S03094 1997 118 SI MM ELVINA 1996-12-16 12:00:00 TS -19.6000 69.7000 main 1245 O___________O_ jtwc_sh SH091997 -19.6000 69.7000 15 -1 -19.6000 69.7000 TC 15 4 255

About IBTrACS Database

This database is a web-friendly format of International Best Track Archive for Climate Stewardship (IBTrACS), a global best track data archive curated by NOAA dating back to 1842.

Updated: 2021-12-08